Terminal Aerodrome Forecast
Issued by NWS

Home | Current Version | Previous Version | Text Only | Print | Product List | Glossary On
Versions: 1 2 3 4 5 6 7 8 9 10 11 12 13 14 15 16 17 18 19 20 21 22 23 24 25 26
000
FTUS45 KPSR 242300 RRA
TAFPHX
TAF
KPHX 242345Z 2500/2524 VRB04KT P6SM OVC250
     FM250700 13010KT P6SM SCT250
     FM251700 25010KT P6SM SCT060
      TEMPO 2518/2522 25012G22KT BKN060=

USA.gov is the U.S. government's official web portal to all federal, state and local government web resources and services.